sensor_id;sensor_type;location;lat;lon;timestamp;P1;durP1;ratioP1;P2;durP2;ratioP2
24685;SDS011;12804;51.176;4.452;2024-02-26T00:00:38;2.42;;;1.55;;
24685;SDS011;12804;51.176;4.452;2024-02-26T00:03:04;3.72;;;1.70;;
24685;SDS011;12804;51.176;4.452;2024-02-26T00:05:30;3.58;;;1.60;;
24685;SDS011;12804;51.176;4.452;2024-02-26T00:07:56;2.35;;;1.30;;
24685;SDS011;12804;51.176;4.452;2024-02-26T00:10:22;3.75;;;1.42;;
24685;SDS011;12804;51.176;4.452;2024-02-26T00:12:48;2.17;;;1.20;;
24685;SDS011;12804;51.176;4.452;2024-02-26T00:15:14;3.03;;;1.23;;
24685;SDS011;12804;51.176;4.452;2024-02-26T00:17:40;2.00;;;1.27;;
24685;SDS011;12804;51.176;4.452;2024-02-26T00:20:05;3.35;;;1.27;;
24685;SDS011;12804;51.176;4.452;2024-02-26T00:22:35;3.15;;;1.55;;
24685;SDS011;12804;51.176;4.452;2024-02-26T00:25:01;2.78;;;1.35;;
24685;SDS011;12804;51.176;4.452;2024-02-26T00:27:26;2.38;;;1.38;;
24685;SDS011;12804;51.176;4.452;2024-02-26T00:29:52;2.38;;;1.35;;
24685;SDS011;12804;51.176;4.452;2024-02-26T00:32:18;1.73;;;1.08;;
24685;SDS011;12804;51.176;4.452;2024-02-26T00:34:44;1.65;;;1.27;;
24685;SDS011;12804;51.176;4.452;2024-02-26T00:37:09;1.92;;;1.25;;
24685;SDS011;12804;51.176;4.452;2024-02-26T00:39:35;4.70;;;1.45;;
24685;SDS011;12804;51.176;4.452;2024-02-26T00:42:01;3.20;;;1.33;;
24685;SDS011;12804;51.176;4.452;2024-02-26T00:44:28;2.15;;;1.27;;
24685;SDS011;12804;51.176;4.452;2024-02-26T00:46:57;5.20;;;1.38;;
24685;SDS011;12804;51.176;4.452;2024-02-26T00:49:23;1.52;;;1.30;;
24685;SDS011;12804;51.176;4.452;2024-02-26T00:51:49;1.38;;;1.20;;
24685;SDS011;12804;51.176;4.452;2024-02-26T00:54:14;2.08;;;1.35;;
24685;SDS011;12804;51.176;4.452;2024-02-26T00:56:40;1.73;;;1.35;;
24685;SDS011;12804;51.176;4.452;2024-02-26T00:59:06;1.67;;;1.30;;
24685;SDS011;12804;51.176;4.452;2024-02-26T01:01:32;2.67;;;1.10;;
24685;SDS011;12804;51.176;4.452;2024-02-26T01:03:57;3.65;;;1.55;;
24685;SDS011;12804;51.176;4.452;2024-02-26T01:06:23;1.95;;;1.20;;
24685;SDS011;12804;51.176;4.452;2024-02-26T01:08:49;2.47;;;1.52;;
24685;SDS011;12804;51.176;4.452;2024-02-26T01:11:16;1.80;;;1.27;;
24685;SDS011;12804;51.176;4.452;2024-02-26T01:13:42;1.15;;;1.00;;
24685;SDS011;12804;51.176;4.452;2024-02-26T01:16:07;2.47;;;1.40;;
24685;SDS011;12804;51.176;4.452;2024-02-26T01:18:33;1.73;;;1.35;;
24685;SDS011;12804;51.176;4.452;2024-02-26T01:20:59;2.08;;;1.40;;
24685;SDS011;12804;51.176;4.452;2024-02-26T01:23:25;1.65;;;1.52;;
24685;SDS011;12804;51.176;4.452;2024-02-26T01:25:51;1.75;;;1.23;;
24685;SDS011;12804;51.176;4.452;2024-02-26T01:28:16;1.45;;;1.35;;
24685;SDS011;12804;51.176;4.452;2024-02-26T01:30:42;3.33;;;1.27;;
24685;SDS011;12804;51.176;4.452;2024-02-26T01:33:08;2.17;;;1.40;;
24685;SDS011;12804;51.176;4.452;2024-02-26T01:35:34;2.25;;;1.50;;
24685;SDS011;12804;51.176;4.452;2024-02-26T01:38:00;2.45;;;1.63;;
24685;SDS011;12804;51.176;4.452;2024-02-26T01:40:29;2.20;;;1.50;;
24685;SDS011;12804;51.176;4.452;2024-02-26T01:42:55;3.05;;;1.15;;
24685;SDS011;12804;51.176;4.452;2024-02-26T01:45:21;2.53;;;1.50;;
24685;SDS011;12804;51.176;4.452;2024-02-26T01:47:52;2.63;;;1.65;;
24685;SDS011;12804;51.176;4.452;2024-02-26T01:50:19;1.52;;;1.40;;
24685;SDS011;12804;51.176;4.452;2024-02-26T01:52:47;2.40;;;1.63;;
24685;SDS011;12804;51.176;4.452;2024-02-26T01:55:15;2.00;;;1.67;;
24685;SDS011;12804;51.176;4.452;2024-02-26T01:57:43;1.90;;;1.52;;
24685;SDS011;12804;51.176;4.452;2024-02-26T02:00:10;2.33;;;1.65;;
24685;SDS011;12804;51.176;4.452;2024-02-26T02:02:37;2.75;;;1.50;;
24685;SDS011;12804;51.176;4.452;2024-02-26T02:05:05;3.00;;;1.80;;
24685;SDS011;12804;51.176;4.452;2024-02-26T02:07:33;1.67;;;1.58;;
24685;SDS011;12804;51.176;4.452;2024-02-26T02:10:00;1.60;;;1.38;;
24685;SDS011;12804;51.176;4.452;2024-02-26T02:12:26;2.35;;;1.58;;
24685;SDS011;12804;51.176;4.452;2024-02-26T02:14:52;1.80;;;1.60;;
24685;SDS011;12804;51.176;4.452;2024-02-26T02:17:19;1.73;;;1.40;;
24685;SDS011;12804;51.176;4.452;2024-02-26T02:19:45;2.97;;;1.15;;
24685;SDS011;12804;51.176;4.452;2024-02-26T02:22:11;2.90;;;1.65;;
24685;SDS011;12804;51.176;4.452;2024-02-26T02:24:37;1.65;;;1.40;;
24685;SDS011;12804;51.176;4.452;2024-02-26T02:27:03;2.13;;;1.60;;
24685;SDS011;12804;51.176;4.452;2024-02-26T02:29:29;2.80;;;1.35;;
24685;SDS011;12804;51.176;4.452;2024-02-26T02:31:55;1.60;;;1.42;;
24685;SDS011;12804;51.176;4.452;2024-02-26T02:34:21;2.53;;;1.60;;
24685;SDS011;12804;51.176;4.452;2024-02-26T02:36:57;3.95;;;1.58;;
24685;SDS011;12804;51.176;4.452;2024-02-26T02:39:22;7.05;;;1.88;;
24685;SDS011;12804;51.176;4.452;2024-02-26T02:41:48;2.72;;;1.90;;
24685;SDS011;12804;51.176;4.452;2024-02-26T02:44:14;4.10;;;1.80;;
24685;SDS011;12804;51.176;4.452;2024-02-26T02:46:40;3.15;;;2.20;;
24685;SDS011;12804;51.176;4.452;2024-02-26T02:49:09;2.15;;;1.80;;
24685;SDS011;12804;51.176;4.452;2024-02-26T02:51:36;2.20;;;1.77;;
24685;SDS011;12804;51.176;4.452;2024-02-26T02:54:02;2.88;;;2.10;;
24685;SDS011;12804;51.176;4.452;2024-02-26T02:56:28;5.07;;;2.25;;
24685;SDS011;12804;51.176;4.452;2024-02-26T02:58:54;2.78;;;2.30;;
24685;SDS011;12804;51.176;4.452;2024-02-26T03:01:20;4.45;;;2.40;;
24685;SDS011;12804;51.176;4.452;2024-02-26T03:03:46;3.15;;;2.50;;
24685;SDS011;12804;51.176;4.452;2024-02-26T03:06:11;5.50;;;2.22;;
24685;SDS011;12804;51.176;4.452;2024-02-26T03:08:37;3.72;;;2.53;;
24685;SDS011;12804;51.176;4.452;2024-02-26T03:11:04;3.35;;;2.55;;
24685;SDS011;12804;51.176;4.452;2024-02-26T03:13:31;3.67;;;2.80;;
24685;SDS011;12804;51.176;4.452;2024-02-26T03:15:56;4.70;;;2.80;;
24685;SDS011;12804;51.176;4.452;2024-02-26T03:18:22;3.42;;;2.70;;
24685;SDS011;12804;51.176;4.452;2024-02-26T03:20:49;4.55;;;3.25;;
24685;SDS011;12804;51.176;4.452;2024-02-26T03:23:14;6.20;;;3.75;;
24685;SDS011;12804;51.176;4.452;2024-02-26T03:25:42;5.95;;;4.07;;
24685;SDS011;12804;51.176;4.452;2024-02-26T03:28:09;6.65;;;3.95;;
24685;SDS011;12804;51.176;4.452;2024-02-26T03:30:35;4.38;;;3.85;;
24685;SDS011;12804;51.176;4.452;2024-02-26T03:33:01;6.18;;;4.82;;
24685;SDS011;12804;51.176;4.452;2024-02-26T03:35:27;7.28;;;4.85;;
24685;SDS011;12804;51.176;4.452;2024-02-26T03:37:52;6.25;;;4.85;;
24685;SDS011;12804;51.176;4.452;2024-02-26T03:40:18;6.65;;;4.85;;
24685;SDS011;12804;51.176;4.452;2024-02-26T03:42:45;6.13;;;5.05;;
24685;SDS011;12804;51.176;4.452;2024-02-26T03:45:10;8.85;;;5.85;;
24685;SDS011;12804;51.176;4.452;2024-02-26T03:47:39;9.77;;;6.10;;
24685;SDS011;12804;51.176;4.452;2024-02-26T03:50:05;6.40;;;5.43;;
24685;SDS011;12804;51.176;4.452;2024-02-26T03:52:32;7.28;;;5.78;;
24685;SDS011;12804;51.176;4.452;2024-02-26T03:54:58;9.88;;;6.22;;
24685;SDS011;12804;51.176;4.452;2024-02-26T03:57:24;7.38;;;5.55;;
24685;SDS011;12804;51.176;4.452;2024-02-26T03:59:49;7.60;;;5.97;;
24685;SDS011;12804;51.176;4.452;2024-02-26T04:02:15;8.27;;;5.88;;
24685;SDS011;12804;51.176;4.452;2024-02-26T04:04:41;7.90;;;5.85;;
24685;SDS011;12804;51.176;4.452;2024-02-26T04:07:07;8.25;;;5.13;;
24685;SDS011;12804;51.176;4.452;2024-02-26T04:09:33;7.80;;;5.53;;
24685;SDS011;12804;51.176;4.452;2024-02-26T04:11:59;6.13;;;5.22;;
24685;SDS011;12804;51.176;4.452;2024-02-26T04:14:25;8.35;;;5.03;;
24685;SDS011;12804;51.176;4.452;2024-02-26T04:16:51;7.63;;;5.22;;
24685;SDS011;12804;51.176;4.452;2024-02-26T04:19:19;10.52;;;5.30;;
24685;SDS011;12804;51.176;4.452;2024-02-26T04:21:45;8.90;;;5.05;;
24685;SDS011;12804;51.176;4.452;2024-02-26T04:24:11;7.80;;;4.57;;
24685;SDS011;12804;51.176;4.452;2024-02-26T04:26:37;5.95;;;4.95;;
24685;SDS011;12804;51.176;4.452;2024-02-26T04:29:03;5.78;;;4.70;;
24685;SDS011;12804;51.176;4.452;2024-02-26T04:31:28;6.88;;;4.95;;
24685;SDS011;12804;51.176;4.452;2024-02-26T04:33:56;5.38;;;4.30;;
24685;SDS011;12804;51.176;4.452;2024-02-26T04:36:22;4.65;;;4.20;;
24685;SDS011;12804;51.176;4.452;2024-02-26T04:38:48;6.60;;;4.45;;
24685;SDS011;12804;51.176;4.452;2024-02-26T04:41:17;4.53;;;4.13;;
24685;SDS011;12804;51.176;4.452;2024-02-26T04:43:43;5.82;;;4.03;;
24685;SDS011;12804;51.176;4.452;2024-02-26T04:46:09;7.20;;;3.67;;
24685;SDS011;12804;51.176;4.452;2024-02-26T04:48:35;4.38;;;3.75;;
24685;SDS011;12804;51.176;4.452;2024-02-26T04:51:03;4.30;;;3.90;;
24685;SDS011;12804;51.176;4.452;2024-02-26T04:53:29;6.00;;;3.92;;
24685;SDS011;12804;51.176;4.452;2024-02-26T04:55:55;4.60;;;4.10;;
24685;SDS011;12804;51.176;4.452;2024-02-26T04:58:21;5.28;;;3.90;;
24685;SDS011;12804;51.176;4.452;2024-02-26T05:00:47;5.07;;;3.88;;
24685;SDS011;12804;51.176;4.452;2024-02-26T05:03:13;5.40;;;4.00;;
24685;SDS011;12804;51.176;4.452;2024-02-26T05:05:41;6.72;;;4.25;;
24685;SDS011;12804;51.176;4.452;2024-02-26T05:08:10;5.72;;;3.72;;
24685;SDS011;12804;51.176;4.452;2024-02-26T05:10:37;5.68;;;4.07;;
24685;SDS011;12804;51.176;4.452;2024-02-26T05:13:06;4.57;;;3.55;;
24685;SDS011;12804;51.176;4.452;2024-02-26T05:15:32;4.15;;;3.80;;
24685;SDS011;12804;51.176;4.452;2024-02-26T05:17:57;4.00;;;3.60;;
24685;SDS011;12804;51.176;4.452;2024-02-26T05:20:24;4.60;;;3.63;;
24685;SDS011;12804;51.176;4.452;2024-02-26T05:22:50;4.00;;;3.60;;
24685;SDS011;12804;51.176;4.452;2024-02-26T05:25:16;5.90;;;3.72;;
24685;SDS011;12804;51.176;4.452;2024-02-26T05:27:43;6.70;;;3.55;;
24685;SDS011;12804;51.176;4.452;2024-02-26T05:30:09;4.45;;;3.72;;
24685;SDS011;12804;51.176;4.452;2024-02-26T05:32:36;4.10;;;3.38;;
24685;SDS011;12804;51.176;4.452;2024-02-26T05:35:02;4.68;;;3.22;;
24685;SDS011;12804;51.176;4.452;2024-02-26T05:37:29;4.85;;;3.25;;
24685;SDS011;12804;51.176;4.452;2024-02-26T05:39:55;5.40;;;3.53;;
24685;SDS011;12804;51.176;4.452;2024-02-26T05:42:20;3.30;;;3.00;;
24685;SDS011;12804;51.176;4.452;2024-02-26T05:44:46;3.92;;;3.05;;
24685;SDS011;12804;51.176;4.452;2024-02-26T05:47:12;3.83;;;3.38;;
24685;SDS011;12804;51.176;4.452;2024-02-26T05:49:39;4.10;;;3.17;;
24685;SDS011;12804;51.176;4.452;2024-02-26T05:52:05;3.88;;;3.20;;
24685;SDS011;12804;51.176;4.452;2024-02-26T05:54:31;4.05;;;3.10;;
24685;SDS011;12804;51.176;4.452;2024-02-26T05:56:57;4.03;;;3.15;;
24685;SDS011;12804;51.176;4.452;2024-02-26T05:59:23;5.00;;;3.25;;
24685;SDS011;12804;51.176;4.452;2024-02-26T06:01:49;5.38;;;3.63;;
24685;SDS011;12804;51.176;4.452;2024-02-26T06:04:15;3.55;;;3.22;;
24685;SDS011;12804;51.176;4.452;2024-02-26T06:06:43;4.28;;;2.97;;
24685;SDS011;12804;51.176;4.452;2024-02-26T06:09:10;3.83;;;2.95;;
24685;SDS011;12804;51.176;4.452;2024-02-26T06:11:37;4.28;;;3.13;;
24685;SDS011;12804;51.176;4.452;2024-02-26T06:14:03;3.35;;;2.90;;
24685;SDS011;12804;51.176;4.452;2024-02-26T06:16:28;5.18;;;3.15;;
24685;SDS011;12804;51.176;4.452;2024-02-26T06:18:54;3.85;;;3.42;;
24685;SDS011;12804;51.176;4.452;2024-02-26T06:21:21;3.65;;;3.30;;
24685;SDS011;12804;51.176;4.452;2024-02-26T06:23:47;4.20;;;3.80;;
24685;SDS011;12804;51.176;4.452;2024-02-26T06:26:14;4.22;;;3.58;;
24685;SDS011;12804;51.176;4.452;2024-02-26T06:28:40;6.47;;;3.90;;
24685;SDS011;12804;51.176;4.452;2024-02-26T06:31:06;5.80;;;4.20;;
24685;SDS011;12804;51.176;4.452;2024-02-26T06:33:32;4.35;;;3.92;;
24685;SDS011;12804;51.176;4.452;2024-02-26T06:35:57;4.20;;;3.65;;
24685;SDS011;12804;51.176;4.452;2024-02-26T06:38:24;5.55;;;4.03;;
24685;SDS011;12804;51.176;4.452;2024-02-26T06:40:49;4.40;;;4.00;;
24685;SDS011;12804;51.176;4.452;2024-02-26T06:43:15;5.85;;;3.97;;
24685;SDS011;12804;51.176;4.452;2024-02-26T06:45:41;5.15;;;4.13;;
24685;SDS011;12804;51.176;4.452;2024-02-26T06:48:07;5.05;;;3.90;;
24685;SDS011;12804;51.176;4.452;2024-02-26T06:50:33;5.18;;;4.05;;
24685;SDS011;12804;51.176;4.452;2024-02-26T06:52:59;4.05;;;3.58;;
24685;SDS011;12804;51.176;4.452;2024-02-26T06:55:25;7.20;;;3.85;;
24685;SDS011;12804;51.176;4.452;2024-02-26T06:57:50;6.20;;;4.00;;
24685;SDS011;12804;51.176;4.452;2024-02-26T07:00:16;4.47;;;3.92;;
24685;SDS011;12804;51.176;4.452;2024-02-26T07:02:43;5.78;;;4.57;;
24685;SDS011;12804;51.176;4.452;2024-02-26T07:05:09;6.05;;;4.07;;
24685;SDS011;12804;51.176;4.452;2024-02-26T07:07:35;5.75;;;4.10;;
24685;SDS011;12804;51.176;4.452;2024-02-26T07:10:01;6.95;;;4.40;;
24685;SDS011;12804;51.176;4.452;2024-02-26T07:12:31;6.78;;;4.13;;
24685;SDS011;12804;51.176;4.452;2024-02-26T07:14:58;4.90;;;4.10;;
24685;SDS011;12804;51.176;4.452;2024-02-26T07:17:23;5.00;;;4.25;;
24685;SDS011;12804;51.176;4.452;2024-02-26T07:19:49;5.70;;;4.13;;
24685;SDS011;12804;51.176;4.452;2024-02-26T07:22:15;9.20;;;4.20;;
24685;SDS011;12804;51.176;4.452;2024-02-26T07:24:41;6.05;;;4.53;;
24685;SDS011;12804;51.176;4.452;2024-02-26T07:27:07;4.93;;;4.18;;
24685;SDS011;12804;51.176;4.452;2024-02-26T07:29:33;6.18;;;4.40;;
24685;SDS011;12804;51.176;4.452;2024-02-26T07:31:58;4.80;;;4.25;;
24685;SDS011;12804;51.176;4.452;2024-02-26T07:34:24;4.93;;;4.43;;
24685;SDS011;12804;51.176;4.452;2024-02-26T07:36:54;5.57;;;4.47;;
24685;SDS011;12804;51.176;4.452;2024-02-26T07:39:21;5.10;;;4.60;;
24685;SDS011;12804;51.176;4.452;2024-02-26T07:41:47;5.40;;;4.15;;
24685;SDS011;12804;51.176;4.452;2024-02-26T07:44:15;5.32;;;4.28;;
24685;SDS011;12804;51.176;4.452;2024-02-26T07:46:41;5.30;;;4.22;;
24685;SDS011;12804;51.176;4.452;2024-02-26T07:49:06;5.00;;;4.32;;
24685;SDS011;12804;51.176;4.452;2024-02-26T07:51:33;5.28;;;4.07;;
24685;SDS011;12804;51.176;4.452;2024-02-26T07:54:00;5.20;;;4.28;;
24685;SDS011;12804;51.176;4.452;2024-02-26T07:56:26;5.25;;;4.32;;
24685;SDS011;12804;51.176;4.452;2024-02-26T07:58:52;4.95;;;4.25;;
24685;SDS011;12804;51.176;4.452;2024-02-26T08:01:18;5.13;;;4.15;;
24685;SDS011;12804;51.176;4.452;2024-02-26T08:03:43;4.95;;;3.80;;
24685;SDS011;12804;51.176;4.452;2024-02-26T08:06:09;4.78;;;4.20;;
24685;SDS011;12804;51.176;4.452;2024-02-26T08:08:35;4.40;;;4.00;;
24685;SDS011;12804;51.176;4.452;2024-02-26T08:11:01;5.25;;;4.13;;
24685;SDS011;12804;51.176;4.452;2024-02-26T08:13:27;6.68;;;4.32;;
24685;SDS011;12804;51.176;4.452;2024-02-26T08:15:53;4.97;;;4.35;;
24685;SDS011;12804;51.176;4.452;2024-02-26T08:18:19;7.18;;;4.53;;
24685;SDS011;12804;51.176;4.452;2024-02-26T08:20:45;5.53;;;4.35;;
24685;SDS011;12804;51.176;4.452;2024-02-26T08:23:11;5.57;;;4.30;;
24685;SDS011;12804;51.176;4.452;2024-02-26T08:25:37;8.27;;;5.35;;
24685;SDS011;12804;51.176;4.452;2024-02-26T08:28:03;6.60;;;4.60;;
24685;SDS011;12804;51.176;4.452;2024-02-26T08:30:30;6.97;;;4.75;;
24685;SDS011;12804;51.176;4.452;2024-02-26T08:32:56;5.57;;;4.38;;
24685;SDS011;12804;51.176;4.452;2024-02-26T08:35:21;5.80;;;4.07;;
24685;SDS011;12804;51.176;4.452;2024-02-26T08:37:47;5.03;;;4.53;;
24685;SDS011;12804;51.176;4.452;2024-02-26T08:40:13;4.15;;;3.75;;
24685;SDS011;12804;51.176;4.452;2024-02-26T08:42:40;6.90;;;4.68;;
24685;SDS011;12804;51.176;4.452;2024-02-26T08:45:05;7.22;;;4.93;;
24685;SDS011;12804;51.176;4.452;2024-02-26T08:47:33;5.13;;;4.35;;
24685;SDS011;12804;51.176;4.452;2024-02-26T08:49:58;4.85;;;4.10;;
24685;SDS011;12804;51.176;4.452;2024-02-26T08:52:24;4.85;;;4.20;;
24685;SDS011;12804;51.176;4.452;2024-02-26T08:54:50;6.05;;;3.95;;
24685;SDS011;12804;51.176;4.452;2024-02-26T08:57:16;4.80;;;3.92;;
24685;SDS011;12804;51.176;4.452;2024-02-26T08:59:41;4.63;;;4.22;;
24685;SDS011;12804;51.176;4.452;2024-02-26T09:02:08;6.28;;;4.05;;
24685;SDS011;12804;51.176;4.452;2024-02-26T09:04:34;4.70;;;4.07;;
24685;SDS011;12804;51.176;4.452;2024-02-26T09:07:01;4.15;;;3.55;;
24685;SDS011;12804;51.176;4.452;2024-02-26T09:09:27;4.30;;;3.90;;
24685;SDS011;12804;51.176;4.452;2024-02-26T09:11:53;5.45;;;4.10;;
24685;SDS011;12804;51.176;4.452;2024-02-26T09:14:20;6.65;;;4.00;;
24685;SDS011;12804;51.176;4.452;2024-02-26T09:16:46;4.63;;;4.10;;
24685;SDS011;12804;51.176;4.452;2024-02-26T09:19:16;5.93;;;3.97;;
24685;SDS011;12804;51.176;4.452;2024-02-26T09:21:43;6.25;;;3.70;;
24685;SDS011;12804;51.176;4.452;2024-02-26T09:24:09;4.07;;;3.65;;
24685;SDS011;12804;51.176;4.452;2024-02-26T09:26:36;4.90;;;3.90;;
24685;SDS011;12804;51.176;4.452;2024-02-26T09:29:02;6.03;;;4.10;;
24685;SDS011;12804;51.176;4.452;2024-02-26T09:31:29;6.30;;;4.25;;
24685;SDS011;12804;51.176;4.452;2024-02-26T09:33:55;5.80;;;3.95;;
24685;SDS011;12804;51.176;4.452;2024-02-26T09:36:21;5.97;;;3.95;;
24685;SDS011;12804;51.176;4.452;2024-02-26T09:38:47;4.80;;;3.97;;
24685;SDS011;12804;51.176;4.452;2024-02-26T09:41:16;5.30;;;3.80;;
24685;SDS011;12804;51.176;4.452;2024-02-26T09:43:43;4.72;;;3.88;;
24685;SDS011;12804;51.176;4.452;2024-02-26T09:46:11;4.35;;;3.83;;
24685;SDS011;12804;51.176;4.452;2024-02-26T09:48:38;4.85;;;4.28;;
24685;SDS011;12804;51.176;4.452;2024-02-26T09:51:05;6.03;;;4.03;;
24685;SDS011;12804;51.176;4.452;2024-02-26T09:53:31;5.13;;;3.92;;
24685;SDS011;12804;51.176;4.452;2024-02-26T09:55:58;4.75;;;4.25;;
24685;SDS011;12804;51.176;4.452;2024-02-26T09:58:24;6.90;;;4.32;;
24685;SDS011;12804;51.176;4.452;2024-02-26T10:00:53;5.18;;;4.28;;
24685;SDS011;12804;51.176;4.452;2024-02-26T10:03:28;4.95;;;4.38;;
24685;SDS011;12804;51.176;4.452;2024-02-26T10:05:59;5.45;;;4.10;;
24685;SDS011;12804;51.176;4.452;2024-02-26T10:08:27;6.97;;;4.78;;
24685;SDS011;12804;51.176;4.452;2024-02-26T10:10:54;5.50;;;4.78;;
24685;SDS011;12804;51.176;4.452;2024-02-26T10:13:21;4.93;;;4.43;;
24685;SDS011;12804;51.176;4.452;2024-02-26T10:15:48;4.85;;;4.35;;
24685;SDS011;12804;51.176;4.452;2024-02-26T10:18:14;5.05;;;4.20;;
24685;SDS011;12804;51.176;4.452;2024-02-26T10:20:40;5.90;;;5.03;;
24685;SDS011;12804;51.176;4.452;2024-02-26T10:23:06;5.47;;;4.68;;
24685;SDS011;12804;51.176;4.452;2024-02-26T10:25:32;5.13;;;4.40;;
24685;SDS011;12804;51.176;4.452;2024-02-26T10:28:01;8.35;;;4.97;;
24685;SDS011;12804;51.176;4.452;2024-02-26T10:30:27;5.57;;;4.82;;
24685;SDS011;12804;51.176;4.452;2024-02-26T10:32:53;5.03;;;4.53;;
24685;SDS011;12804;51.176;4.452;2024-02-26T10:35:19;5.65;;;4.82;;
24685;SDS011;12804;51.176;4.452;2024-02-26T10:37:46;6.50;;;5.05;;
24685;SDS011;12804;51.176;4.452;2024-02-26T10:40:13;5.78;;;5.00;;
24685;SDS011;12804;51.176;4.452;2024-02-26T10:42:40;6.90;;;5.03;;
24685;SDS011;12804;51.176;4.452;2024-02-26T10:45:06;6.07;;;4.82;;
24685;SDS011;12804;51.176;4.452;2024-02-26T10:47:34;5.35;;;4.75;;
24685;SDS011;12804;51.176;4.452;2024-02-26T10:50:01;6.68;;;4.95;;
24685;SDS011;12804;51.176;4.452;2024-02-26T10:52:30;6.20;;;5.10;;
24685;SDS011;12804;51.176;4.452;2024-02-26T10:55:01;6.35;;;5.07;;
24685;SDS011;12804;51.176;4.452;2024-02-26T10:57:31;7.40;;;4.93;;
24685;SDS011;12804;51.176;4.452;2024-02-26T11:00:10;7.10;;;5.35;;
24685;SDS011;12804;51.176;4.452;2024-02-26T11:02:41;6.38;;;4.97;;
24685;SDS011;12804;51.176;4.452;2024-02-26T11:05:07;6.03;;;5.10;;
24685;SDS011;12804;51.176;4.452;2024-02-26T11:07:34;6.38;;;4.95;;
24685;SDS011;12804;51.176;4.452;2024-02-26T11:10:02;6.93;;;5.05;;
24685;SDS011;12804;51.176;4.452;2024-02-26T11:12:29;7.72;;;4.85;;
24685;SDS011;12804;51.176;4.452;2024-02-26T11:14:56;6.82;;;5.25;;
24685;SDS011;12804;51.176;4.452;2024-02-26T11:17:27;7.82;;;4.72;;
24685;SDS011;12804;51.176;4.452;2024-02-26T11:19:58;6.70;;;5.32;;
24685;SDS011;12804;51.176;4.452;2024-02-26T11:22:25;6.15;;;5.10;;
24685;SDS011;12804;51.176;4.452;2024-02-26T11:24:57;5.22;;;4.18;;
24685;SDS011;12804;51.176;4.452;2024-02-26T11:27:27;6.82;;;4.85;;
24685;SDS011;12804;51.176;4.452;2024-02-26T11:29:58;5.78;;;4.88;;
24685;SDS011;12804;51.176;4.452;2024-02-26T11:32:30;4.82;;;4.18;;
24685;SDS011;12804;51.176;4.452;2024-02-26T11:34:57;5.20;;;4.35;;
24685;SDS011;12804;51.176;4.452;2024-02-26T11:37:23;6.30;;;4.38;;
24685;SDS011;12804;51.176;4.452;2024-02-26T11:39:51;7.35;;;4.68;;
24685;SDS011;12804;51.176;4.452;2024-02-26T11:42:17;5.32;;;4.38;;
24685;SDS011;12804;51.176;4.452;2024-02-26T11:44:50;5.90;;;4.45;;
24685;SDS011;12804;51.176;4.452;2024-02-26T11:47:19;6.68;;;4.43;;
24685;SDS011;12804;51.176;4.452;2024-02-26T11:49:46;6.07;;;4.22;;
24685;SDS011;12804;51.176;4.452;2024-02-26T11:52:13;5.70;;;4.22;;
24685;SDS011;12804;51.176;4.452;2024-02-26T11:54:53;5.25;;;4.38;;
24685;SDS011;12804;51.176;4.452;2024-02-26T11:59:51;6.00;;;4.40;;
24685;SDS011;12804;51.176;4.452;2024-02-26T12:05:09;6.68;;;4.57;;
24685;SDS011;12804;51.176;4.452;2024-02-26T12:07:42;5.78;;;4.50;;
24685;SDS011;12804;51.176;4.452;2024-02-26T12:10:20;7.85;;;5.40;;
24685;SDS011;12804;51.176;4.452;2024-02-26T12:12:54;8.70;;;5.22;;
24685;SDS011;12804;51.176;4.452;2024-02-26T12:15:24;7.50;;;5.18;;
24685;SDS011;12804;51.176;4.452;2024-02-26T12:17:55;9.30;;;5.90;;
24685;SDS011;12804;51.176;4.452;2024-02-26T12:20:21;8.10;;;5.78;;
24685;SDS011;12804;51.176;4.452;2024-02-26T12:22:48;9.88;;;5.88;;
24685;SDS011;12804;51.176;4.452;2024-02-26T12:25:19;9.02;;;5.13;;
24685;SDS011;12804;51.176;4.452;2024-02-26T12:27:47;8.25;;;5.60;;
24685;SDS011;12804;51.176;4.452;2024-02-26T12:30:13;7.20;;;5.03;;
24685;SDS011;12804;51.176;4.452;2024-02-26T12:32:39;7.22;;;5.13;;
24685;SDS011;12804;51.176;4.452;2024-02-26T12:35:05;8.43;;;5.75;;
24685;SDS011;12804;51.176;4.452;2024-02-26T12:37:31;8.32;;;5.40;;
24685;SDS011;12804;51.176;4.452;2024-02-26T12:39:57;10.50;;;5.95;;
24685;SDS011;12804;51.176;4.452;2024-02-26T12:42:23;8.63;;;5.82;;
24685;SDS011;12804;51.176;4.452;2024-02-26T12:44:49;8.75;;;5.22;;
24685;SDS011;12804;51.176;4.452;2024-02-26T12:47:16;8.10;;;5.63;;
24685;SDS011;12804;51.176;4.452;2024-02-26T12:49:43;9.32;;;5.68;;
24685;SDS011;12804;51.176;4.452;2024-02-26T12:52:13;7.85;;;5.70;;
24685;SDS011;12804;51.176;4.452;2024-02-26T12:54:39;8.85;;;6.03;;
24685;SDS011;12804;51.176;4.452;2024-02-26T12:57:06;8.63;;;5.60;;
24685;SDS011;12804;51.176;4.452;2024-02-26T12:59:34;8.95;;;4.80;;
24685;SDS011;12804;51.176;4.452;2024-02-26T13:02:02;8.50;;;5.57;;
24685;SDS011;12804;51.176;4.452;2024-02-26T13:04:29;8.32;;;5.60;;
24685;SDS011;12804;51.176;4.452;2024-02-26T13:06:56;8.70;;;5.97;;
24685;SDS011;12804;51.176;4.452;2024-02-26T13:09:27;7.88;;;5.32;;
24685;SDS011;12804;51.176;4.452;2024-02-26T13:11:57;7.78;;;5.20;;
24685;SDS011;12804;51.176;4.452;2024-02-26T13:14:24;7.22;;;5.35;;
24685;SDS011;12804;51.176;4.452;2024-02-26T13:16:56;5.97;;;4.30;;
24685;SDS011;12804;51.176;4.452;2024-02-26T13:19:25;6.75;;;5.13;;
24685;SDS011;12804;51.176;4.452;2024-02-26T13:21:55;8.18;;;5.47;;
24685;SDS011;12804;51.176;4.452;2024-02-26T13:24:20;6.78;;;5.07;;
24685;SDS011;12804;51.176;4.452;2024-02-26T13:26:53;8.27;;;5.43;;
24685;SDS011;12804;51.176;4.452;2024-02-26T13:29:22;5.90;;;4.80;;
24685;SDS011;12804;51.176;4.452;2024-02-26T13:32:08;7.03;;;5.00;;
24685;SDS011;12804;51.176;4.452;2024-02-26T13:34:37;7.32;;;5.35;;
24685;SDS011;12804;51.176;4.452;2024-02-26T13:37:05;7.00;;;4.68;;
24685;SDS011;12804;51.176;4.452;2024-02-26T13:39:31;8.65;;;5.53;;
24685;SDS011;12804;51.176;4.452;2024-02-26T13:41:57;6.28;;;4.82;;
24685;SDS011;12804;51.176;4.452;2024-02-26T13:44:23;7.32;;;4.90;;
24685;SDS011;12804;51.176;4.452;2024-02-26T13:46:50;6.30;;;4.97;;
24685;SDS011;12804;51.176;4.452;2024-02-26T13:49:16;6.95;;;5.13;;
24685;SDS011;12804;51.176;4.452;2024-02-26T13:51:42;7.55;;;5.20;;
24685;SDS011;12804;51.176;4.452;2024-02-26T13:54:08;5.25;;;4.50;;
24685;SDS011;12804;51.176;4.452;2024-02-26T13:56:35;5.55;;;4.40;;
24685;SDS011;12804;51.176;4.452;2024-02-26T13:59:02;6.90;;;4.80;;
24685;SDS011;12804;51.176;4.452;2024-02-26T14:01:28;8.13;;;5.35;;
24685;SDS011;12804;51.176;4.452;2024-02-26T14:03:54;7.05;;;5.10;;
24685;SDS011;12804;51.176;4.452;2024-02-26T14:06:22;8.60;;;5.90;;
24685;SDS011;12804;51.176;4.452;2024-02-26T14:08:48;7.55;;;5.65;;
24685;SDS011;12804;51.176;4.452;2024-02-26T14:11:14;6.30;;;5.30;;
24685;SDS011;12804;51.176;4.452;2024-02-26T14:13:40;7.55;;;5.72;;
24685;SDS011;12804;51.176;4.452;2024-02-26T14:16:06;5.78;;;4.88;;
24685;SDS011;12804;51.176;4.452;2024-02-26T14:18:32;7.22;;;5.00;;
24685;SDS011;12804;51.176;4.452;2024-02-26T14:20:57;8.85;;;5.45;;
24685;SDS011;12804;51.176;4.452;2024-02-26T14:23:23;6.95;;;5.45;;
24685;SDS011;12804;51.176;4.452;2024-02-26T14:25:52;6.80;;;4.95;;
24685;SDS011;12804;51.176;4.452;2024-02-26T14:28:18;6.90;;;5.10;;
24685;SDS011;12804;51.176;4.452;2024-02-26T14:30:43;7.47;;;5.10;;
24685;SDS011;12804;51.176;4.452;2024-02-26T14:33:09;6.88;;;4.97;;
24685;SDS011;12804;51.176;4.452;2024-02-26T14:35:35;6.82;;;5.22;;
24685;SDS011;12804;51.176;4.452;2024-02-26T14:38:01;6.35;;;4.65;;
24685;SDS011;12804;51.176;4.452;2024-02-26T14:40:26;5.35;;;4.38;;
24685;SDS011;12804;51.176;4.452;2024-02-26T14:42:52;5.97;;;4.38;;
24685;SDS011;12804;51.176;4.452;2024-02-26T14:45:18;7.60;;;5.00;;
24685;SDS011;12804;51.176;4.452;2024-02-26T14:47:44;5.47;;;4.20;;
24685;SDS011;12804;51.176;4.452;2024-02-26T14:50:10;5.35;;;4.05;;